createdAt,value
2023-07-26T00:01:52.673Z,13.70
2023-07-26T00:04:19.588Z,13.70
2023-07-26T00:06:46.557Z,13.70
2023-07-26T00:09:13.467Z,13.70
2023-07-26T00:11:40.320Z,13.60
2023-07-26T00:14:10.155Z,13.50
2023-07-26T00:16:37.268Z,13.60
2023-07-26T00:19:04.260Z,13.60
2023-07-26T00:21:31.132Z,13.60
2023-07-26T00:24:00.016Z,13.60
2023-07-26T00:26:27.219Z,13.70
2023-07-26T00:28:54.118Z,13.80
2023-07-26T00:31:21.984Z,13.70
2023-07-26T00:33:49.185Z,13.70
2023-07-26T00:36:16.110Z,13.70
2023-07-26T00:38:43.035Z,13.60
2023-07-26T00:41:10.007Z,13.60
2023-07-26T00:43:36.903Z,13.50
2023-07-26T00:46:06.288Z,13.50
2023-07-26T00:48:33.475Z,13.60
2023-07-26T00:51:01.812Z,13.60
2023-07-26T00:53:29.405Z,13.60
2023-07-26T00:55:56.619Z,13.60
2023-07-26T00:58:23.545Z,13.70
2023-07-26T01:00:51.542Z,13.80
2023-07-26T01:03:18.950Z,13.80
2023-07-26T01:06:24.104Z,13.80
2023-07-26T01:08:51.015Z,13.90
2023-07-26T01:11:41.633Z,14.00
2023-07-26T01:14:18.762Z,13.90
2023-07-26T01:16:47.389Z,13.80
2023-07-26T01:19:14.367Z,13.80
2023-07-26T01:21:41.248Z,13.80
2023-07-26T01:24:08.246Z,13.90
2023-07-26T01:26:35.149Z,13.90
2023-07-26T01:29:02.063Z,14.00
2023-07-26T01:31:29.047Z,14.10
2023-07-26T01:33:57.681Z,14.20
2023-07-26T01:36:25.370Z,14.40
2023-07-26T01:38:53.561Z,14.40
2023-07-26T01:41:22.194Z,14.40
2023-07-26T01:43:49.055Z,14.40
2023-07-26T01:46:16.360Z,14.40
2023-07-26T01:48:43.314Z,14.50
2023-07-26T01:51:10.510Z,14.40
2023-07-26T01:53:37.540Z,14.50
2023-07-26T01:56:04.864Z,14.50
2023-07-26T01:58:31.791Z,14.60
2023-07-26T02:00:59.304Z,14.70
2023-07-26T02:03:26.267Z,14.70
2023-07-26T02:05:53.197Z,14.80
2023-07-26T02:08:20.888Z,14.80
2023-07-26T02:10:47.833Z,14.90
2023-07-26T02:13:14.702Z,14.90
2023-07-26T02:15:41.842Z,14.60
2023-07-26T02:18:08.731Z,14.40
2023-07-26T02:20:36.080Z,14.40
2023-07-26T02:23:03.492Z,14.50
2023-07-26T02:25:30.509Z,14.70
2023-07-26T02:27:57.447Z,14.90
2023-07-26T02:30:24.352Z,15.00
2023-07-26T02:32:51.311Z,15.20
2023-07-26T02:35:18.574Z,15.20
2023-07-26T02:37:45.534Z,15.20
2023-07-26T02:40:13.008Z,15.30
2023-07-26T02:42:39.992Z,15.40
2023-07-26T02:45:07.217Z,15.30
2023-07-26T02:47:34.397Z,15.30
2023-07-26T02:50:02.699Z,15.30
2023-07-26T02:52:29.635Z,15.10
2023-07-26T02:54:56.552Z,15.00
2023-07-26T02:57:23.683Z,14.80
2023-07-26T02:59:50.564Z,14.60
2023-07-26T03:02:17.480Z,14.40
2023-07-26T03:04:44.390Z,14.40
2023-07-26T03:07:11.233Z,14.30
2023-07-26T03:09:38.081Z,14.30
2023-07-26T03:12:05.324Z,14.20
2023-07-26T03:14:32.406Z,14.00
2023-07-26T03:17:05.284Z,14.10
2023-07-26T03:19:39.145Z,14.10
2023-07-26T03:22:06.180Z,14.20
2023-07-26T03:24:33.252Z,14.30
2023-07-26T03:27:00.265Z,14.20
2023-07-26T03:29:27.138Z,14.30
2023-07-26T03:31:55.146Z,14.10
2023-07-26T03:34:22.211Z,14.10
2023-07-26T03:36:49.137Z,13.90
2023-07-26T03:39:15.983Z,13.90
2023-07-26T03:41:42.963Z,14.10
2023-07-26T03:44:09.815Z,14.30
2023-07-26T03:46:36.904Z,14.40
2023-07-26T03:49:03.973Z,14.40
2023-07-26T03:51:30.904Z,14.20
2023-07-26T03:53:57.757Z,14.10
2023-07-26T03:56:24.682Z,13.80
2023-07-26T03:58:51.575Z,13.60
2023-07-26T04:01:18.561Z,13.40
2023-07-26T04:03:45.588Z,13.20
2023-07-26T04:06:13.663Z,13.10
2023-07-26T04:08:41.261Z,13.00
2023-07-26T04:11:08.673Z,13.00
2023-07-26T04:13:35.637Z,13.20
2023-07-26T04:16:02.624Z,13.30
2023-07-26T04:18:29.546Z,13.40
2023-07-26T04:20:56.429Z,13.40
2023-07-26T04:23:23.387Z,13.60
2023-07-26T04:25:51.750Z,13.80
2023-07-26T04:28:18.608Z,14.00
2023-07-26T04:30:45.870Z,14.10
2023-07-26T04:33:12.782Z,14.20
2023-07-26T04:35:39.749Z,14.20
2023-07-26T04:38:06.665Z,14.30
2023-07-26T04:40:33.586Z,14.40
2023-07-26T04:43:00.532Z,14.50
2023-07-26T04:45:27.456Z,14.60
2023-07-26T04:47:54.394Z,14.80
2023-07-26T04:50:21.338Z,14.90
2023-07-26T04:52:48.223Z,14.80
2023-07-26T04:55:15.173Z,14.60
2023-07-26T04:57:42.051Z,14.40
2023-07-26T05:00:09.466Z,14.40
2023-07-26T05:02:37.137Z,14.50
2023-07-26T05:05:04.411Z,14.40
2023-07-26T05:07:31.269Z,14.40
2023-07-26T05:09:59.068Z,14.50
2023-07-26T05:12:25.973Z,14.40
2023-07-26T05:14:53.056Z,14.30
2023-07-26T05:17:20.115Z,14.10
2023-07-26T05:19:47.015Z,13.90
2023-07-26T05:22:13.892Z,13.80
2023-07-26T05:24:40.821Z,13.80
2023-07-26T05:27:07.795Z,13.70
2023-07-26T05:29:34.689Z,13.60
2023-07-26T05:32:01.602Z,13.40
2023-07-26T05:34:28.469Z,13.40
2023-07-26T05:36:55.314Z,13.40
2023-07-26T05:39:22.210Z,13.60
2023-07-26T05:41:49.703Z,14.00
2023-07-26T05:44:16.612Z,14.40
2023-07-26T05:46:43.476Z,14.80
2023-07-26T05:49:11.436Z,15.00
2023-07-26T05:51:38.320Z,15.00
2023-07-26T05:54:05.200Z,15.00
2023-07-26T05:56:32.115Z,15.00
2023-07-26T05:58:58.996Z,15.00
2023-07-26T06:01:25.900Z,14.90
2023-07-26T06:03:52.781Z,14.60
2023-07-26T06:06:19.776Z,14.50
2023-07-26T06:08:46.775Z,14.70
2023-07-26T06:11:13.724Z,14.80
2023-07-26T06:13:40.753Z,14.90
2023-07-26T06:16:07.859Z,15.10
2023-07-26T06:18:34.750Z,15.10
2023-07-26T06:21:01.669Z,15.10
2023-07-26T06:23:28.584Z,15.30
2023-07-26T06:25:55.477Z,15.30
2023-07-26T06:28:22.366Z,15.30
2023-07-26T06:30:49.850Z,15.30
2023-07-26T06:33:16.825Z,15.20
2023-07-26T06:35:43.794Z,15.10
2023-07-26T06:38:10.770Z,15.20
2023-07-26T06:40:38.263Z,15.30
2023-07-26T06:43:06.626Z,15.40
2023-07-26T06:45:33.972Z,15.50
2023-07-26T06:48:00.872Z,15.40
2023-07-26T06:50:27.803Z,15.50
2023-07-26T06:52:54.751Z,15.60
2023-07-26T06:55:21.693Z,15.70
2023-07-26T06:57:48.625Z,15.90
2023-07-26T07:00:17.060Z,15.90
2023-07-26T07:02:44.049Z,15.80
2023-07-26T07:05:11.142Z,15.70
2023-07-26T07:07:38.052Z,15.60
2023-07-26T07:10:05.548Z,15.70
2023-07-26T07:12:32.508Z,15.70
2023-07-26T07:14:59.383Z,15.60
2023-07-26T07:17:26.301Z,15.70
2023-07-26T07:19:53.328Z,15.70
2023-07-26T07:22:20.246Z,15.60
2023-07-26T07:24:47.251Z,15.70
2023-07-26T07:27:14.185Z,15.80
2023-07-26T07:29:41.427Z,16.10
2023-07-26T07:32:21.375Z,16.20
2023-07-26T07:34:50.011Z,16.30
2023-07-26T07:37:16.901Z,16.10
2023-07-26T07:39:43.976Z,16.00
2023-07-26T07:42:10.880Z,16.10
2023-07-26T07:44:38.241Z,15.80
2023-07-26T07:47:06.649Z,15.70
2023-07-26T07:49:34.855Z,15.60
2023-07-26T07:52:01.784Z,15.60
2023-07-26T07:54:28.707Z,15.60
2023-07-26T07:56:55.554Z,15.60
2023-07-26T07:59:22.463Z,15.50
2023-07-26T08:01:49.407Z,15.40
2023-07-26T08:04:16.324Z,15.30
2023-07-26T08:06:43.185Z,15.10
2023-07-26T08:09:10.095Z,15.00
2023-07-26T08:11:37.147Z,14.80
2023-07-26T08:14:04.559Z,14.60
2023-07-26T08:16:31.481Z,14.50
2023-07-26T08:19:02.361Z,14.20
2023-07-26T08:21:29.283Z,13.90
2023-07-26T08:23:56.174Z,13.70
2023-07-26T08:26:23.590Z,13.50
2023-07-26T08:28:50.513Z,13.50
2023-07-26T08:31:17.903Z,13.70
2023-07-26T08:33:44.886Z,13.80
2023-07-26T08:36:11.733Z,14.00
2023-07-26T08:38:38.712Z,14.20
2023-07-26T08:41:07.446Z,14.50
2023-07-26T08:43:38.613Z,14.70
2023-07-26T08:46:08.540Z,14.90
2023-07-26T08:48:37.992Z,15.00
2023-07-26T08:51:06.496Z,15.20
2023-07-26T08:53:35.212Z,15.30
2023-07-26T08:56:02.696Z,15.40
2023-07-26T08:58:29.831Z,15.20
2023-07-26T09:00:57.612Z,15.30
2023-07-26T09:03:24.708Z,15.40
2023-07-26T09:06:05.058Z,15.60
2023-07-26T09:08:32.491Z,15.60
2023-07-26T09:11:01.426Z,15.70
2023-07-26T09:13:28.507Z,15.60
2023-07-26T09:15:55.618Z,15.50
2023-07-26T09:18:22.626Z,15.60
2023-07-26T09:21:02.353Z,15.80
2023-07-26T09:23:29.404Z,16.00
2023-07-26T09:25:56.267Z,16.20
2023-07-26T09:28:25.911Z,16.30
2023-07-26T09:30:53.202Z,16.40
2023-07-26T09:33:23.585Z,16.40
2023-07-26T09:35:54.700Z,16.50
2023-07-26T09:38:26.589Z,16.60
2023-07-26T09:40:53.508Z,16.80
2023-07-26T09:43:34.150Z,17.00
2023-07-26T09:46:05.941Z,17.20
2023-07-26T09:53:41.013Z,17.60
2023-07-26T09:56:08.399Z,17.60
2023-07-26T09:58:36.440Z,17.70
2023-07-26T10:01:04.234Z,17.70
2023-07-26T10:03:34.780Z,17.70
2023-07-26T10:06:02.480Z,17.60
2023-07-26T10:08:29.710Z,17.70
2023-07-26T10:10:58.743Z,17.80
2023-07-26T10:13:28.559Z,17.90
2023-07-26T10:15:57.607Z,17.90
2023-07-26T10:18:29.122Z,17.80
2023-07-26T10:20:59.173Z,17.90
2023-07-26T10:23:26.887Z,18.10
2023-07-26T10:25:56.179Z,18.10
2023-07-26T10:28:23.754Z,18.00
2023-07-26T10:30:53.052Z,17.90
2023-07-26T10:33:20.047Z,18.00
2023-07-26T10:35:47.290Z,18.30
2023-07-26T10:38:16.340Z,18.50
2023-07-26T10:40:45.145Z,18.50
2023-07-26T10:43:21.092Z,18.60
2023-07-26T10:45:55.161Z,18.90
2023-07-26T10:48:28.090Z,19.20
2023-07-26T10:51:21.390Z,19.50
2023-07-26T10:53:48.250Z,19.60
2023-07-26T10:56:25.015Z,19.70
2023-07-26T10:58:56.780Z,19.50
2023-07-26T11:01:40.187Z,19.20
2023-07-26T11:04:20.560Z,19.20
2023-07-26T11:07:00.310Z,19.40
2023-07-26T11:09:35.112Z,19.70
2023-07-26T11:12:04.965Z,19.90
2023-07-26T11:14:35.114Z,20.40
2023-07-26T11:17:15.858Z,20.90
2023-07-26T11:19:50.555Z,20.90
2023-07-26T11:22:19.620Z,21.40
2023-07-26T11:24:47.666Z,21.80
2023-07-26T11:27:14.963Z,22.00
2023-07-26T11:29:41.881Z,22.00
2023-07-26T11:32:08.993Z,22.40
2023-07-26T11:34:36.097Z,23.10
2023-07-26T11:37:09.947Z,23.40
2023-07-26T11:39:37.767Z,22.50
2023-07-26T11:42:06.146Z,21.60
2023-07-26T11:44:33.533Z,20.70
2023-07-26T11:47:04.194Z,19.80
2023-07-26T11:49:33.348Z,19.00
2023-07-26T11:52:00.475Z,18.30
2023-07-26T11:54:27.450Z,17.60
2023-07-26T11:56:54.422Z,17.30
2023-07-26T11:59:21.602Z,17.20
2023-07-26T12:01:49.299Z,17.10
2023-07-26T12:04:19.498Z,16.90
2023-07-26T12:06:49.490Z,17.00
2023-07-26T12:09:16.751Z,17.10
2023-07-26T12:11:51.842Z,17.90
2023-07-26T12:14:21.377Z,19.40
2023-07-26T12:16:53.220Z,20.90
2023-07-26T12:19:22.003Z,22.00
2023-07-26T12:21:49.812Z,22.80
2023-07-26T12:24:17.210Z,23.40
2023-07-26T12:26:48.922Z,23.90
2023-07-26T12:29:16.703Z,24.20
2023-07-26T12:31:43.681Z,24.70
2023-07-26T12:34:15.198Z,25.40
2023-07-26T12:36:49.808Z,25.50
2023-07-26T12:39:20.716Z,25.30
2023-07-26T12:41:48.059Z,25.20
2023-07-26T12:44:17.317Z,25.20
2023-07-26T12:47:22.757Z,25.20
2023-07-26T12:49:32.511Z,24.40
2023-07-26T12:52:00.660Z,24.50
2023-07-26T12:54:28.032Z,25.20
2023-07-26T12:56:55.888Z,25.90
2023-07-26T12:59:22.796Z,26.20
2023-07-26T13:01:49.785Z,26.20
2023-07-26T13:04:17.136Z,26.10
2023-07-26T13:06:44.140Z,26.40
2023-07-26T13:09:11.075Z,27.10
2023-07-26T13:11:37.958Z,27.10
2023-07-26T13:14:05.025Z,27.00
2023-07-26T13:16:33.670Z,26.70
2023-07-26T13:19:02.790Z,26.50
2023-07-26T13:21:30.217Z,25.80
2023-07-26T13:23:57.656Z,24.60
2023-07-26T13:26:25.457Z,23.60
2023-07-26T13:28:52.395Z,23.30
2023-07-26T13:31:20.031Z,23.20
2023-07-26T13:33:50.852Z,23.30
2023-07-26T13:36:25.033Z,24.40
2023-07-26T13:38:52.435Z,25.40
2023-07-26T13:41:20.045Z,25.20
2023-07-26T13:43:47.625Z,24.30
2023-07-26T13:48:44.514Z,23.90
2023-07-26T13:51:11.506Z,23.30
2023-07-26T13:53:38.421Z,22.50
2023-07-26T13:56:05.586Z,21.80
2023-07-26T13:58:32.520Z,21.30
2023-07-26T14:00:59.444Z,21.30
2023-07-26T14:03:27.258Z,22.60
2023-07-26T14:05:54.187Z,24.00
2023-07-26T14:08:21.125Z,25.40
2023-07-26T14:10:48.193Z,27.10
2023-07-26T14:13:16.842Z,28.70
2023-07-26T14:15:43.946Z,28.60
2023-07-26T14:18:11.059Z,27.80
2023-07-26T14:20:38.202Z,27.70
2023-07-26T14:23:05.228Z,27.50
2023-07-26T14:25:34.450Z,26.90
2023-07-26T14:28:01.388Z,26.20
2023-07-26T14:30:28.338Z,25.70
2023-07-26T14:32:55.318Z,25.20
2023-07-26T14:35:22.322Z,24.50
2023-07-26T14:37:49.413Z,23.70
2023-07-26T14:40:16.606Z,23.00
2023-07-26T14:42:44.221Z,22.60
2023-07-26T14:45:11.303Z,22.10
2023-07-26T14:47:38.204Z,21.60
2023-07-26T14:50:05.531Z,20.90
2023-07-26T14:52:33.673Z,21.40
2023-07-26T14:55:01.390Z,22.90
2023-07-26T14:57:28.318Z,23.40
2023-07-26T14:59:55.317Z,23.50
2023-07-26T15:02:22.310Z,24.00
2023-07-26T15:04:49.440Z,25.00
2023-07-26T15:07:16.430Z,26.80
2023-07-26T15:09:43.439Z,27.40
2023-07-26T15:12:10.598Z,27.00
2023-07-26T15:14:37.662Z,27.50
2023-07-26T15:17:05.013Z,28.00
2023-07-26T15:19:31.931Z,27.80
2023-07-26T15:21:58.914Z,27.20
2023-07-26T15:24:28.870Z,26.60
2023-07-26T15:26:55.814Z,25.70
2023-07-26T15:29:22.763Z,25.00
2023-07-26T15:31:49.728Z,24.30
2023-07-26T15:34:16.660Z,23.70
2023-07-26T15:36:44.052Z,23.80
2023-07-26T15:39:11.072Z,24.20
2023-07-26T15:44:12.392Z,24.50
2023-07-26T15:46:42.629Z,24.60
2023-07-26T15:49:16.991Z,25.20
2023-07-26T15:51:44.354Z,26.80
2023-07-26T15:54:11.371Z,28.30
2023-07-26T15:56:38.273Z,28.50
2023-07-26T15:59:05.168Z,27.70
2023-07-26T16:01:32.461Z,26.90
2023-07-26T16:03:59.658Z,26.70
2023-07-26T16:06:28.419Z,27.70
2023-07-26T16:09:28.051Z,28.80
2023-07-26T16:19:13.461Z,29.00
2023-07-26T16:24:10.783Z,29.30
2023-07-26T16:26:37.770Z,29.10
2023-07-26T16:29:06.175Z,28.90
2023-07-26T16:31:33.358Z,29.00
2023-07-26T16:34:00.513Z,28.80
2023-07-26T16:36:27.388Z,29.20
2023-07-26T16:38:54.317Z,30.10
2023-07-26T16:41:21.191Z,30.30
2023-07-26T16:43:48.072Z,29.80
2023-07-26T16:46:15.013Z,29.70
2023-07-26T16:48:41.972Z,29.50
2023-07-26T16:51:08.912Z,28.80
2023-07-26T16:53:35.851Z,27.30
2023-07-26T16:56:02.836Z,26.70
2023-07-26T16:58:29.759Z,26.40
2023-07-26T17:00:57.292Z,25.40
2023-07-26T17:03:24.341Z,24.50
2023-07-26T17:05:51.276Z,23.70
2023-07-26T17:08:18.225Z,23.00
2023-07-26T17:10:45.115Z,22.20
2023-07-26T17:13:12.026Z,21.60
2023-07-26T17:15:39.054Z,21.10
2023-07-26T17:18:06.145Z,20.90
2023-07-26T17:20:33.023Z,20.80
2023-07-26T17:22:59.914Z,20.70
2023-07-26T17:25:26.879Z,20.70
2023-07-26T17:27:53.856Z,20.70
2023-07-26T17:30:23.037Z,20.60
2023-07-26T17:35:18.134Z,20.60
2023-07-26T17:37:46.114Z,20.60
2023-07-26T17:40:13.822Z,20.60
2023-07-26T17:42:40.824Z,20.60
2023-07-26T17:45:08.084Z,20.50
2023-07-26T17:47:35.079Z,20.30
2023-07-26T17:50:01.994Z,20.20
2023-07-26T17:52:28.898Z,20.20
2023-07-26T17:54:55.819Z,20.10
2023-07-26T17:57:22.800Z,20.10
2023-07-26T17:59:49.688Z,20.00
2023-07-26T18:02:16.831Z,19.90
2023-07-26T18:04:43.911Z,19.80
2023-07-26T18:07:11.116Z,19.60
2023-07-26T18:09:38.130Z,19.60
2023-07-26T18:12:05.375Z,19.70
2023-07-26T18:14:32.338Z,19.60
2023-07-26T18:16:59.233Z,19.60
2023-07-26T18:19:26.197Z,19.50
2023-07-26T18:21:53.074Z,19.60
2023-07-26T18:24:20.039Z,19.40
2023-07-26T18:26:47.226Z,19.40
2023-07-26T18:29:14.173Z,19.30
2023-07-26T18:31:41.755Z,19.10
2023-07-26T18:34:09.129Z,19.00
2023-07-26T18:36:36.520Z,18.90
2023-07-26T18:39:03.864Z,18.80
2023-07-26T18:41:31.140Z,18.70
2023-07-26T18:43:58.209Z,18.50
2023-07-26T18:46:25.068Z,18.40
2023-07-26T18:48:52.324Z,18.40
2023-07-26T18:51:19.394Z,18.30
2023-07-26T18:53:46.299Z,18.20
2023-07-26T18:56:13.175Z,18.10
2023-07-26T18:58:40.179Z,18.10
2023-07-26T19:01:07.081Z,17.90
2023-07-26T19:03:34.107Z,17.70
2023-07-26T19:06:00.962Z,17.60
2023-07-26T19:08:28.429Z,17.60
2023-07-26T19:10:55.385Z,17.50
2023-07-26T19:13:22.332Z,17.40
2023-07-26T19:15:59.275Z,17.40
2023-07-26T19:18:26.908Z,17.30
2023-07-26T19:21:01.483Z,17.30
2023-07-26T19:23:28.590Z,17.20
2023-07-26T19:25:55.444Z,17.10
2023-07-26T19:28:22.348Z,17.00
2023-07-26T19:30:51.746Z,16.90
2023-07-26T19:33:19.219Z,16.90
2023-07-26T19:35:59.976Z,16.90
2023-07-26T19:38:29.451Z,16.80
2023-07-26T19:41:00.537Z,16.80
2023-07-26T19:43:27.502Z,16.70
2023-07-26T19:45:54.509Z,16.60
2023-07-26T19:48:21.482Z,16.50
2023-07-26T19:50:51.124Z,16.50
2023-07-26T19:53:18.263Z,16.50
2023-07-26T19:55:46.723Z,16.50
2023-07-26T19:58:14.728Z,16.50
2023-07-26T20:00:42.232Z,16.50
2023-07-26T20:03:09.437Z,16.60
2023-07-26T20:05:36.558Z,16.80
2023-07-26T20:08:03.866Z,17.00
2023-07-26T20:10:30.989Z,17.30
2023-07-26T20:12:57.872Z,17.40
2023-07-26T20:15:24.992Z,17.60
2023-07-26T20:17:51.971Z,17.80
2023-07-26T20:20:18.997Z,17.90
2023-07-26T20:22:45.928Z,18.10
2023-07-26T20:25:12.794Z,18.10
2023-07-26T20:27:39.676Z,18.10
2023-07-26T20:30:07.139Z,18.20
2023-07-26T20:32:34.059Z,18.20
2023-07-26T20:35:00.976Z,18.30
2023-07-26T20:37:27.962Z,18.30
2023-07-26T20:39:59.190Z,18.40
2023-07-26T20:42:28.826Z,18.40
2023-07-26T20:44:56.010Z,18.50
2023-07-26T20:47:22.900Z,18.50
2023-07-26T20:49:49.752Z,18.60
2023-07-26T20:52:17.421Z,18.60
2023-07-26T20:54:44.674Z,18.60
2023-07-26T20:57:11.551Z,18.60
2023-07-26T20:59:38.426Z,18.60
2023-07-26T21:02:05.564Z,18.60
2023-07-26T21:04:33.511Z,18.60
2023-07-26T21:07:00.487Z,18.60
2023-07-26T21:09:27.340Z,18.70
2023-07-26T21:11:54.231Z,18.70
2023-07-26T21:14:21.121Z,18.60
2023-07-26T21:16:48.179Z,18.60
2023-07-26T21:19:15.112Z,18.60
2023-07-26T21:21:42.193Z,18.50
2023-07-26T21:24:09.061Z,18.50
2023-07-26T21:26:36.490Z,18.50
2023-07-26T21:29:03.642Z,18.50
2023-07-26T21:31:30.589Z,18.40
2023-07-26T21:33:57.493Z,18.40
2023-07-26T21:36:25.956Z,18.40
2023-07-26T21:38:52.940Z,18.40
2023-07-26T21:41:20.154Z,18.40
2023-07-26T21:43:47.051Z,18.40
2023-07-26T21:46:14.058Z,18.40
2023-07-26T21:48:41.073Z,18.30
2023-07-26T21:51:07.937Z,18.30
2023-07-26T21:53:35.052Z,18.30
2023-07-26T21:56:02.033Z,18.30
2023-07-26T21:58:28.900Z,18.30
2023-07-26T22:00:56.117Z,18.30
2023-07-26T22:03:23.761Z,18.30
2023-07-26T22:05:53.956Z,18.30
2023-07-26T22:08:21.719Z,18.30
2023-07-26T22:10:48.682Z,18.30
2023-07-26T22:13:16.838Z,18.30
2023-07-26T22:15:46.153Z,18.30
2023-07-26T22:18:13.141Z,18.30
2023-07-26T22:20:56.768Z,18.30
2023-07-26T22:23:26.904Z,18.30
2023-07-26T22:26:07.366Z,18.20
2023-07-26T22:28:40.650Z,18.20
2023-07-26T22:31:07.599Z,18.20
2023-07-26T22:33:34.503Z,18.20
2023-07-26T22:36:04.762Z,18.20
2023-07-26T22:38:31.847Z,18.20
2023-07-26T22:40:58.765Z,18.10
2023-07-26T22:43:25.674Z,18.10
2023-07-26T22:45:52.632Z,18.10
2023-07-26T22:48:19.542Z,18.10
2023-07-26T22:50:46.397Z,18.10
2023-07-26T22:53:13.282Z,18.10
2023-07-26T22:55:40.306Z,18.10
2023-07-26T22:58:07.265Z,18.10
2023-07-26T23:00:34.285Z,18.00
2023-07-26T23:03:01.264Z,18.00
2023-07-26T23:05:29.532Z,18.00
2023-07-26T23:07:56.434Z,18.00
2023-07-26T23:10:23.315Z,18.00
2023-07-26T23:12:50.223Z,18.00
2023-07-26T23:15:17.222Z,18.00
2023-07-26T23:17:44.161Z,18.00
2023-07-26T23:20:11.358Z,18.00
2023-07-26T23:22:38.272Z,18.00
2023-07-26T23:25:05.918Z,17.90
2023-07-26T23:27:32.816Z,17.90
2023-07-26T23:29:59.793Z,17.90
2023-07-26T23:32:26.890Z,17.90
2023-07-26T23:34:53.816Z,17.90
2023-07-26T23:37:20.686Z,17.90
2023-07-26T23:39:47.533Z,17.90
2023-07-26T23:42:14.431Z,17.80
2023-07-26T23:44:41.526Z,17.80
2023-07-26T23:47:08.372Z,17.80
2023-07-26T23:49:35.993Z,17.80
2023-07-26T23:52:03.465Z,17.70
2023-07-26T23:54:30.354Z,17.70
2023-07-26T23:56:57.233Z,17.70
2023-07-26T23:59:24.214Z,17.60
